Time;durP1;ratioP1;P1;durP2;ratioP2;P2;SDS_P1;SDS_P2;PMS_P1;PMS_P2;Temp;Humidity;BMP_temperature;BMP_pressure;BME280_temperature;BME280_humidity;BME280_pressure;Samples;Min_cycle;Max_cycle;Signal;HPM_P1;HPM_P2
2023/03/29 00:01:11;;;;;;;6.07;3.53;;;5.70;99.90;;;;;;5006153;28;20502;-77
2023/03/29 00:03:38;;;;;;;6.88;3.25;;;5.70;99.90;;;;;;5004812;28;20507;-78
2023/03/29 00:06:05;;;;;;;7.35;3.30;;;5.70;99.90;;;;;;5006070;28;20424;-78
2023/03/29 00:08:33;;;;;;;5.68;2.85;;;5.70;99.90;;;;;;5006416;28;20409;-78
2023/03/29 00:10:59;;;;;;;5.28;3.00;;;5.70;99.90;;;;;;5005156;28;20517;-76
2023/03/29 00:13:27;;;;;;;7.93;3.35;;;5.70;99.90;;;;;;5005994;28;20464;-76
2023/03/29 00:15:55;;;;;;;6.22;3.38;;;5.70;99.90;;;;;;5007008;28;20405;-76
2023/03/29 00:18:21;;;;;;;5.70;3.22;;;5.70;99.90;;;;;;5006386;28;20435;-76
2023/03/29 00:20:56;;;;;;;5.75;3.05;;;5.70;99.90;;;;;;5004425;28;20436;-76
2023/03/29 00:23:23;;;;;;;6.13;3.17;;;5.60;99.90;;;;;;5006550;28;20409;-76
2023/03/29 00:25:51;;;;;;;6.43;3.13;;;5.60;99.90;;;;;;5007108;28;20451;-76
2023/03/29 00:28:17;;;;;;;5.90;2.95;;;5.60;99.90;;;;;;4993890;28;20417;-76
2023/03/29 00:30:42;;;;;;;5.28;2.90;;;5.60;99.90;;;;;;5005143;28;20772;-76
2023/03/29 00:33:08;;;;;;;7.70;2.73;;;5.60;99.90;;;;;;5004395;28;20413;-76
2023/03/29 00:35:36;;;;;;;7.40;3.17;;;5.60;99.90;;;;;;5004797;28;20845;-75
2023/03/29 00:38:04;;;;;;;5.50;2.90;;;5.60;99.90;;;;;;5006112;28;20424;-76
2023/03/29 00:40:31;;;;;;;5.78;2.83;;;5.60;99.90;;;;;;5005530;28;20430;-75
2023/03/29 00:42:57;;;;;;;5.68;2.97;;;5.60;99.90;;;;;;5006766;28;20401;-76
2023/03/29 00:45:30;;;;;;;6.13;2.80;;;5.60;99.90;;;;;;5006014;28;20409;-76
2023/03/29 00:48:01;;;;;;;4.60;2.42;;;5.60;99.90;;;;;;5005716;28;20459;-76
2023/03/29 00:50:38;;;;;;;5.53;2.60;;;5.60;99.90;;;;;;5005628;28;20416;-77
2023/03/29 00:53:11;;;;;;;4.75;2.78;;;5.60;99.90;;;;;;5005874;28;20417;-77
2023/03/29 00:55:58;;;;;;;4.82;2.78;;;5.60;99.90;;;;;;5005633;28;20405;-77
2023/03/29 00:58:32;;;;;;;4.97;2.55;;;5.60;99.90;;;;;;5002832;28;20930;-77
2023/03/29 01:01:07;;;;;;;5.80;2.90;;;5.60;99.90;;;;;;5008479;28;20432;-77
2023/03/29 01:03:44;;;;;;;6.28;2.80;;;5.60;99.90;;;;;;5004081;28;20490;-77
2023/03/29 01:06:12;;;;;;;6.05;3.00;;;5.60;99.90;;;;;;5004993;28;20511;-77
2023/03/29 01:08:48;;;;;;;4.85;2.50;;;5.60;99.90;;;;;;5012166;28;20413;-76
2023/03/29 01:11:18;;;;;;;4.72;2.40;;;5.60;99.90;;;;;;5008536;28;20436;-77
2023/03/29 01:14:15;;;;;;;4.82;2.63;;;5.60;99.90;;;;;;5016673;28;20439;-77
2023/03/29 01:16:41;;;;;;;5.97;2.55;;;5.60;99.90;;;;;;5017096;28;20418;-77
2023/03/29 01:19:11;;;;;;;4.50;2.90;;;5.60;99.90;;;;;;4992182;28;21136;-77
2023/03/29 01:21:43;;;;;;;5.80;2.75;;;5.60;99.90;;;;;;5008607;28;20778;-77
2023/03/29 01:24:20;;;;;;;5.70;2.80;;;5.60;99.90;;;;;;5008246;28;20436;-76
2023/03/29 01:27:10;;;;;;;4.75;2.50;;;5.60;99.90;;;;;;5007687;28;20927;-76
2023/03/29 01:29:49;;;;;;;4.60;2.90;;;5.60;99.90;;;;;;5008373;28;20424;-77
2023/03/29 01:32:29;;;;;;;6.57;3.10;;;5.60;99.90;;;;;;5008540;28;20416;-77
2023/03/29 01:35:09;;;;;;;5.45;2.90;;;5.60;99.90;;;;;;5007424;28;20500;-77
2023/03/29 01:37:40;;;;;;;5.63;2.97;;;5.60;99.90;;;;;;5007304;28;20982;-77
2023/03/29 01:40:06;;;;;;;7.70;3.42;;;5.60;99.90;;;;;;5006985;28;20998;-77
2023/03/29 01:42:56;;;;;;;6.47;2.72;;;5.60;99.90;;;;;;5007993;28;20417;-76
2023/03/29 01:45:28;;;;;;;5.63;2.55;;;5.70;99.90;;;;;;4996134;28;20478;-78
2023/03/29 01:48:20;;;;;;;5.68;2.65;;;5.60;99.90;;;;;;5007686;28;20458;-78
2023/03/29 01:50:54;;;;;;;5.20;2.75;;;5.60;99.90;;;;;;5007523;28;20958;-78
2023/03/29 01:53:32;;;;;;;5.18;3.05;;;5.70;99.90;;;;;;5008819;28;20428;-75
2023/03/29 01:56:05;;;;;;;5.13;3.13;;;5.70;99.90;;;;;;5009347;28;20448;-76
2023/03/29 01:58:39;;;;;;;5.73;2.87;;;5.70;99.90;;;;;;5008934;28;20412;-76
2023/03/29 02:01:11;;;;;;;5.18;3.00;;;5.70;99.90;;;;;;5008169;28;20440;-76
2023/03/29 02:03:41;;;;;;;5.68;3.00;;;5.70;99.90;;;;;;5007373;28;20425;-76
2023/03/29 02:06:10;;;;;;;5.45;3.28;;;5.70;99.90;;;;;;5008442;28;20428;-77
2023/03/29 02:08:40;;;;;;;5.32;3.17;;;5.70;99.90;;;;;;5006581;28;20421;-76
2023/03/29 02:11:06;;;;;;;6.82;3.70;;;5.70;99.90;;;;;;5005920;28;21030;-77
2023/03/29 02:13:33;;;;;;;5.75;3.55;;;5.70;99.90;;;;;;5008226;28;20405;-76
2023/03/29 02:16:01;;;;;;;7.32;3.70;;;5.70;99.90;;;;;;5007544;28;20421;-77
2023/03/29 02:18:28;;;;;;;7.28;4.05;;;5.60;99.90;;;;;;5006860;28;20424;-76
2023/03/29 02:20:56;;;;;;;6.22;3.78;;;5.70;99.90;;;;;;5007468;28;21529;-76
2023/03/29 02:23:34;;;;;;;6.30;4.13;;;5.70;99.90;;;;;;5008740;28;20518;-76
2023/03/29 02:26:01;;;;;;;8.13;4.20;;;5.70;99.90;;;;;;5010175;28;20446;-76
2023/03/29 02:28:28;;;;;;;7.50;4.05;;;5.70;99.90;;;;;;4995454;28;20415;-76
2023/03/29 02:31:06;;;;;;;7.30;4.10;;;5.70;99.90;;;;;;5007765;28;20409;-76
2023/03/29 02:33:57;;;;;;;7.35;4.20;;;5.70;99.90;;;;;;5007113;28;20428;-76
2023/03/29 02:36:32;;;;;;;6.20;3.47;;;5.70;99.90;;;;;;5007768;28;20496;-75
2023/03/29 02:39:02;;;;;;;7.03;4.13;;;5.70;99.90;;;;;;5007883;28;20401;-75
2023/03/29 02:41:28;;;;;;;9.40;4.30;;;5.70;99.90;;;;;;5000246;28;20861;-75
2023/03/29 02:43:55;;;;;;;8.53;4.40;;;5.70;99.90;;;;;;5008730;28;20440;-75
2023/03/29 02:46:22;;;;;;;7.20;3.88;;;5.70;99.90;;;;;;5005493;28;20917;-76
2023/03/29 02:48:50;;;;;;;6.78;4.05;;;5.60;99.90;;;;;;5005267;28;20416;-76
2023/03/29 02:51:20;;;;;;;8.95;4.40;;;5.70;99.90;;;;;;5007369;28;20413;-76
2023/03/29 02:53:56;;;;;;;6.03;3.87;;;5.60;99.90;;;;;;5006239;28;20409;-76
2023/03/29 02:56:22;;;;;;;9.67;4.20;;;5.60;99.90;;;;;;5007256;28;20428;-76
2023/03/29 02:58:48;;;;;;;7.53;4.40;;;5.60;99.90;;;;;;5006136;28;20835;-76
2023/03/29 03:01:15;;;;;;;6.20;3.80;;;5.60;99.90;;;;;;5006634;28;20540;-76
2023/03/29 03:03:41;;;;;;;8.07;4.63;;;5.60;99.90;;;;;;5007018;28;20421;-76
2023/03/29 03:06:07;;;;;;;7.90;4.63;;;5.60;99.90;;;;;;5007237;28;20942;-76
2023/03/29 03:08:32;;;;;;;9.73;4.68;;;5.60;99.90;;;;;;5007736;28;20401;-76
2023/03/29 03:10:58;;;;;;;8.03;4.27;;;5.60;99.90;;;;;;5006819;28;20458;-76
2023/03/29 03:13:24;;;;;;;7.03;4.10;;;5.70;99.90;;;;;;5006798;28;20420;-76
2023/03/29 03:15:49;;;;;;;9.63;4.40;;;5.70;99.90;;;;;;5007960;28;20413;-76
2023/03/29 03:18:15;;;;;;;8.23;4.73;;;5.70;99.90;;;;;;5009756;28;20442;-77
2023/03/29 03:20:41;;;;;;;8.43;4.72;;;5.60;99.90;;;;;;5009700;28;20890;-76
2023/03/29 03:23:08;;;;;;;6.55;4.18;;;5.70;99.90;;;;;;5008632;28;20405;-76
2023/03/29 03:25:34;;;;;;;7.95;4.53;;;5.70;99.90;;;;;;5009359;28;20460;-76
2023/03/29 03:28:01;;;;;;;7.45;4.60;;;5.70;99.90;;;;;;5008959;28;20413;-76
2023/03/29 03:30:27;;;;;;;7.70;5.10;;;5.70;99.90;;;;;;5007800;28;20417;-76
2023/03/29 03:32:53;;;;;;;9.48;4.97;;;5.70;99.90;;;;;;5008948;28;20436;-76
2023/03/29 03:35:19;;;;;;;8.68;5.05;;;5.70;99.90;;;;;;5007953;28;20920;-76
2023/03/29 03:37:45;;;;;;;9.73;5.18;;;5.70;99.90;;;;;;5008455;28;20495;-75
2023/03/29 03:40:12;;;;;;;9.83;5.30;;;5.70;99.90;;;;;;5006748;28;20566;-75
2023/03/29 03:42:39;;;;;;;8.23;5.32;;;5.70;99.90;;;;;;5008077;28;20421;-76
2023/03/29 03:45:05;;;;;;;9.10;5.47;;;5.80;99.90;;;;;;5005871;28;20413;-76
2023/03/29 03:47:30;;;;;;;8.77;5.50;;;5.70;99.90;;;;;;5006265;28;20420;-76
2023/03/29 03:49:56;;;;;;;9.77;6.13;;;5.70;99.90;;;;;;5006013;28;20413;-76
2023/03/29 03:52:22;;;;;;;10.53;6.17;;;5.70;99.90;;;;;;5005420;28;20908;-76
2023/03/29 03:54:49;;;;;;;9.75;6.15;;;5.80;99.90;;;;;;5005020;28;20470;-75
2023/03/29 03:57:15;;;;;;;10.23;6.60;;;5.70;99.90;;;;;;5006561;28;20482;-76
2023/03/29 03:59:41;;;;;;;9.85;6.43;;;5.70;99.90;;;;;;5004985;28;20417;-77
2023/03/29 04:02:06;;;;;;;10.13;6.32;;;5.80;99.90;;;;;;5004945;28;20506;-76
2023/03/29 04:04:32;;;;;;;12.93;6.70;;;5.80;99.90;;;;;;5007019;28;20406;-76
2023/03/29 04:07:01;;;;;;;11.37;6.60;;;5.70;99.90;;;;;;5008146;28;20497;-76
2023/03/29 04:09:28;;;;;;;10.00;6.70;;;5.70;99.90;;;;;;5008612;28;20853;-77
2023/03/29 04:11:54;;;;;;;10.40;6.75;;;5.80;99.90;;;;;;5009453;28;20454;-76
2023/03/29 04:14:20;;;;;;;11.52;7.40;;;5.80;99.90;;;;;;5010093;28;20405;-76
2023/03/29 04:16:46;;;;;;;11.52;7.78;;;5.80;99.90;;;;;;5010483;28;20478;-76
2023/03/29 04:19:12;;;;;;;9.95;7.35;;;5.80;99.90;;;;;;5005566;28;20993;-76
2023/03/29 04:21:38;;;;;;;11.57;7.65;;;5.80;99.90;;;;;;5010354;28;20443;-76
2023/03/29 04:24:04;;;;;;;14.00;7.93;;;5.80;99.90;;;;;;5010498;28;20424;-76
2023/03/29 04:26:30;;;;;;;12.77;7.93;;;5.80;99.90;;;;;;5009932;28;20413;-76
2023/03/29 04:28:55;;;;;;;12.02;8.35;;;5.80;99.90;;;;;;5007292;28;20528;-76
2023/03/29 04:31:21;;;;;;;11.82;8.40;;;5.80;99.90;;;;;;5010952;28;20428;-76
2023/03/29 04:33:47;;;;;;;12.73;8.47;;;5.80;99.90;;;;;;5010864;28;20421;-76
2023/03/29 04:36:14;;;;;;;13.88;8.77;;;5.80;99.90;;;;;;5011962;28;20402;-77
2023/03/29 04:38:40;;;;;;;14.35;9.30;;;5.80;99.90;;;;;;5012278;28;20461;-76
2023/03/29 04:41:08;;;;;;;14.05;9.07;;;5.80;99.90;;;;;;5012923;28;20440;-76
2023/03/29 04:43:34;;;;;;;13.70;9.60;;;5.80;99.90;;;;;;5012978;28;20453;-76
2023/03/29 04:46:00;;;;;;;14.07;9.50;;;5.80;99.90;;;;;;5011719;28;20417;-77
2023/03/29 04:48:29;;;;;;;15.20;10.00;;;5.80;99.90;;;;;;5008471;28;20417;-77
2023/03/29 04:50:54;;;;;;;14.77;9.70;;;5.80;99.90;;;;;;4993994;28;20412;-76
2023/03/29 04:53:21;;;;;;;14.43;10.33;;;5.80;99.90;;;;;;5005424;28;20420;-76
2023/03/29 04:55:46;;;;;;;15.87;10.43;;;5.80;99.90;;;;;;5005783;28;20414;-76
2023/03/29 04:58:12;;;;;;;16.23;10.83;;;5.80;99.90;;;;;;5005319;28;20477;-76
2023/03/29 05:00:38;;;;;;;16.90;10.98;;;5.80;99.90;;;;;;5003896;28;20437;-77
2023/03/29 05:03:05;;;;;;;16.97;11.50;;;5.80;99.90;;;;;;5005433;28;20427;-76
2023/03/29 05:05:31;;;;;;;15.98;10.80;;;5.80;99.90;;;;;;5004223;28;20412;-76
2023/03/29 05:07:56;;;;;;;15.60;10.93;;;5.80;99.90;;;;;;5005130;28;21855;-76
2023/03/29 05:10:22;;;;;;;15.60;11.30;;;5.80;99.90;;;;;;5005519;28;20462;-76
2023/03/29 05:12:52;;;;;;;15.75;11.07;;;5.80;99.90;;;;;;5005712;28;20416;-76
2023/03/29 05:15:19;;;;;;;16.85;11.18;;;5.80;99.90;;;;;;4993921;28;20445;-77
2023/03/29 05:17:46;;;;;;;15.13;11.63;;;5.90;99.90;;;;;;5005095;28;20895;-77
2023/03/29 05:20:12;;;;;;;15.38;10.98;;;5.90;99.90;;;;;;5004975;28;20833;-76
2023/03/29 05:22:39;;;;;;;14.73;10.60;;;5.90;99.90;;;;;;5007237;28;20418;-76
2023/03/29 05:25:05;;;;;;;14.40;10.35;;;5.90;99.90;;;;;;5004702;28;20915;-76
2023/03/29 05:27:32;;;;;;;15.35;11.30;;;5.90;99.90;;;;;;5011497;28;20787;-76
2023/03/29 05:29:58;;;;;;;16.65;11.50;;;5.90;99.90;;;;;;5009159;28;20421;-76
2023/03/29 05:32:24;;;;;;;16.48;11.20;;;5.90;99.90;;;;;;5004875;28;20896;-77
2023/03/29 05:34:50;;;;;;;15.90;10.85;;;5.90;99.90;;;;;;5003944;28;20405;-76
2023/03/29 05:37:16;;;;;;;17.48;11.07;;;5.90;99.90;;;;;;5003470;28;20420;-76
2023/03/29 05:39:42;;;;;;;18.13;11.65;;;5.90;99.90;;;;;;5003477;28;20424;-76
2023/03/29 05:42:11;;;;;;;15.18;10.70;;;5.90;99.90;;;;;;5003956;28;20534;-76
2023/03/29 05:44:36;;;;;;;18.80;10.65;;;5.90;99.90;;;;;;5003169;28;20421;-76
2023/03/29 05:47:02;;;;;;;15.97;10.97;;;5.90;99.90;;;;;;5004683;28;20488;-76
2023/03/29 05:49:28;;;;;;;17.02;11.13;;;5.90;99.90;;;;;;5004185;28;20417;-76
2023/03/29 05:51:55;;;;;;;16.70;10.80;;;6.00;99.90;;;;;;5005953;28;21109;-76
2023/03/29 05:54:22;;;;;;;16.08;10.68;;;6.00;99.90;;;;;;5004869;28;20444;-77
2023/03/29 05:56:48;;;;;;;15.13;11.18;;;6.00;99.90;;;;;;5004118;28;20458;-77
2023/03/29 05:59:13;;;;;;;15.47;10.47;;;6.00;99.90;;;;;;5005352;28;20392;-76
2023/03/29 06:01:40;;;;;;;16.38;11.05;;;6.00;99.90;;;;;;5004237;28;20431;-76
2023/03/29 06:04:06;;;;;;;15.70;10.75;;;6.00;99.90;;;;;;5009306;28;20508;-76
2023/03/29 06:06:32;;;;;;;14.47;10.70;;;6.00;99.90;;;;;;4992323;28;20494;-77
2023/03/29 06:08:58;;;;;;;16.13;10.75;;;6.10;99.90;;;;;;5009207;28;20420;-76
2023/03/29 06:11:25;;;;;;;16.63;11.07;;;6.10;99.90;;;;;;5009158;28;20403;-76
2023/03/29 06:13:51;;;;;;;14.90;10.95;;;6.10;99.90;;;;;;4989927;28;20429;-77
2023/03/29 06:16:17;;;;;;;17.27;11.10;;;6.10;99.90;;;;;;5010255;28;20777;-77
2023/03/29 06:18:43;;;;;;;16.03;10.80;;;6.10;99.90;;;;;;5009302;28;20444;-77
2023/03/29 06:21:09;;;;;;;14.95;10.93;;;6.10;99.90;;;;;;5010947;28;20435;-77
2023/03/29 06:23:35;;;;;;;15.77;10.98;;;6.20;99.90;;;;;;5009690;28;20421;-77
2023/03/29 06:26:01;;;;;;;15.63;10.85;;;6.20;99.90;;;;;;5009610;28;20411;-77
2023/03/29 06:28:27;;;;;;;16.92;10.43;;;6.20;99.90;;;;;;5009664;28;20417;-77
2023/03/29 06:30:54;;;;;;;15.97;10.70;;;6.20;99.90;;;;;;5008861;28;20421;-77
2023/03/29 06:33:24;;;;;;;15.93;11.43;;;6.20;99.90;;;;;;5010292;28;20420;-77
2023/03/29 06:35:49;;;;;;;18.10;11.37;;;6.20;99.90;;;;;;5013750;28;20449;-78
2023/03/29 06:38:15;;;;;;;16.47;11.30;;;6.20;99.90;;;;;;5011050;28;20429;-78
2023/03/29 06:40:43;;;;;;;16.70;11.30;;;6.20;99.90;;;;;;5010237;28;20847;-77
2023/03/29 06:43:09;;;;;;;15.25;11.18;;;6.20;99.90;;;;;;5007824;28;20428;-77
2023/03/29 06:45:36;;;;;;;17.43;11.33;;;6.30;99.90;;;;;;5008559;28;20409;-77
2023/03/29 06:48:03;;;;;;;14.80;10.77;;;6.30;99.90;;;;;;5007862;28;20452;-77
2023/03/29 06:50:29;;;;;;;15.88;10.98;;;6.30;99.90;;;;;;5008875;28;20409;-77
2023/03/29 06:52:56;;;;;;;15.02;10.90;;;6.30;99.90;;;;;;5007368;28;20405;-76
2023/03/29 06:55:22;;;;;;;17.85;11.68;;;6.40;99.90;;;;;;5005494;28;20421;-77
2023/03/29 06:57:48;;;;;;;16.75;10.90;;;6.40;99.90;;;;;;5007850;28;20413;-77
2023/03/29 07:00:18;;;;;;;17.27;11.07;;;6.40;99.90;;;;;;5007275;28;20405;-77
2023/03/29 07:02:44;;;;;;;18.23;11.45;;;6.50;99.90;;;;;;5007479;28;20417;-77
2023/03/29 07:05:12;;;;;;;14.48;10.98;;;6.50;99.90;;;;;;5007390;28;20413;-77
2023/03/29 07:08:09;;;;;;;19.17;11.63;;;6.50;99.90;;;;;;5007688;28;20461;-77
2023/03/29 07:10:38;;;;;;;16.73;10.95;;;6.60;99.90;;;;;;4998452;28;20420;-77
2023/03/29 07:13:11;;;;;;;15.95;10.88;;;6.60;99.90;;;;;;5006563;28;20500;-77
2023/03/29 07:15:36;;;;;;;16.97;11.03;;;6.70;99.90;;;;;;5006391;28;20429;-77
2023/03/29 07:18:03;;;;;;;16.00;10.83;;;6.80;99.90;;;;;;5006881;28;20580;-77
2023/03/29 07:20:30;;;;;;;14.75;11.07;;;6.80;99.90;;;;;;5007409;28;20466;-77
2023/03/29 07:22:56;;;;;;;16.55;10.93;;;6.80;99.90;;;;;;5007316;28;20428;-77
2023/03/29 07:25:23;;;;;;;16.35;11.02;;;6.90;99.90;;;;;;5007200;28;20409;-77
2023/03/29 07:27:50;;;;;;;17.58;11.55;;;6.90;99.90;;;;;;5007627;28;20504;-77
2023/03/29 07:30:22;;;;;;;16.02;11.07;;;7.00;99.90;;;;;;5005714;28;20948;-77
2023/03/29 07:32:49;;;;;;;18.77;12.30;;;7.00;99.90;;;;;;5078658;28;20436;-77
2023/03/29 07:35:16;;;;;;;17.48;11.95;;;7.00;99.90;;;;;;5006294;28;20413;-77
2023/03/29 07:37:43;;;;;;;16.13;11.20;;;7.10;99.90;;;;;;5005344;28;20495;-77
2023/03/29 07:40:22;;;;;;;15.40;11.10;;;7.20;99.90;;;;;;5006463;28;20413;-77
2023/03/29 07:42:53;;;;;;;17.93;11.20;;;7.30;99.90;;;;;;4988956;28;20409;-77
2023/03/29 07:45:21;;;;;;;16.27;11.15;;;7.30;99.90;;;;;;5006415;28;20597;-77
2023/03/29 07:47:47;;;;;;;16.27;10.55;;;7.30;99.90;;;;;;5005756;28;20406;-77
2023/03/29 07:50:13;;;;;;;14.80;10.48;;;7.40;99.90;;;;;;4990695;28;20403;-77
2023/03/29 07:52:39;;;;;;;15.57;10.80;;;7.50;99.90;;;;;;5007516;28;20413;-77
2023/03/29 07:55:06;;;;;;;14.90;10.53;;;7.60;99.90;;;;;;5007841;28;20423;-77
2023/03/29 07:57:32;;;;;;;15.53;10.67;;;7.60;99.90;;;;;;5006520;28;20827;-77
2023/03/29 07:59:58;;;;;;;13.13;10.07;;;7.60;99.90;;;;;;5008405;28;20408;-77
2023/03/29 08:02:24;;;;;;;15.25;10.07;;;7.60;99.90;;;;;;5006355;28;20518;-77
2023/03/29 08:04:52;;;;;;;13.48;9.98;;;7.60;99.90;;;;;;5005774;28;20413;-77
2023/03/29 08:07:18;;;;;;;15.02;10.20;;;7.60;99.90;;;;;;5006528;28;20412;-77
2023/03/29 08:09:44;;;;;;;14.57;9.80;;;7.60;99.90;;;;;;5005803;28;20994;-77
2023/03/29 08:12:10;;;;;;;12.57;9.93;;;7.70;99.90;;;;;;5005596;28;20413;-77
2023/03/29 08:14:36;;;;;;;13.40;9.80;;;7.70;99.90;;;;;;5004924;28;20414;-77
2023/03/29 08:17:03;;;;;;;14.50;9.70;;;7.70;99.90;;;;;;5043115;28;20790;-77
2023/03/29 08:19:28;;;;;;;13.00;9.88;;;7.80;99.90;;;;;;5018471;28;20409;-77
2023/03/29 08:21:54;;;;;;;14.35;9.55;;;7.80;99.90;;;;;;5005754;28;20509;-77
2023/03/29 08:24:20;;;;;;;12.87;9.27;;;7.80;99.90;;;;;;5004974;28;20413;-77
2023/03/29 08:26:47;;;;;;;12.07;8.90;;;7.90;99.90;;;;;;5005794;28;20503;-77
2023/03/29 08:29:13;;;;;;;13.67;8.87;;;8.00;99.90;;;;;;5009342;28;20416;-77
2023/03/29 08:31:39;;;;;;;13.27;8.90;;;8.10;99.90;;;;;;5009729;28;20821;-77
2023/03/29 08:34:05;;;;;;;11.50;8.43;;;8.10;99.90;;;;;;5013994;28;20414;-77
2023/03/29 08:36:30;;;;;;;12.40;8.55;;;8.10;99.90;;;;;;5010305;28;20406;-77
2023/03/29 08:38:56;;;;;;;11.07;8.77;;;8.10;99.90;;;;;;5014632;28;20407;-77
2023/03/29 08:41:45;;;;;;;12.50;8.60;;;8.20;99.90;;;;;;5011809;28;20437;-77
2023/03/29 08:44:20;;;;;;;12.23;8.85;;;8.20;99.90;;;;;;5001093;28;20445;-77
2023/03/29 08:47:12;;;;;;;13.07;8.80;;;8.30;99.90;;;;;;5005389;28;20410;-77
2023/03/29 08:49:40;;;;;;;11.60;8.23;;;8.40;99.90;;;;;;5005334;28;20942;-77
2023/03/29 08:52:35;;;;;;;10.93;7.97;;;8.50;99.90;;;;;;5008669;28;20493;-77
2023/03/29 08:55:07;;;;;;;13.05;7.95;;;8.60;99.90;;;;;;5007135;28;20471;-77
2023/03/29 08:57:44;;;;;;;13.02;7.85;;;8.70;99.90;;;;;;5007320;28;20483;-77
2023/03/29 09:00:26;;;;;;;11.63;8.13;;;8.70;99.90;;;;;;5006907;28;20401;-77
2023/03/29 09:02:53;;;;;;;13.68;8.48;;;8.80;99.90;;;;;;5007023;28;20419;-78
2023/03/29 09:05:39;;;;;;;13.00;7.90;;;8.80;99.90;;;;;;5005062;28;20918;-77
2023/03/29 09:08:12;;;;;;;12.68;8.10;;;8.90;99.90;;;;;;5008754;28;20750;-77
2023/03/29 09:11:22;;;;;;;12.40;7.78;;;8.90;99.90;;;;;;5007284;28;20409;-77
2023/03/29 09:14:15;;;;;;;13.25;8.40;;;8.90;99.90;;;;;;5043787;28;20509;-77
2023/03/29 09:17:06;;;;;;;13.18;7.85;;;8.90;99.90;;;;;;5006173;28;20417;-77
2023/03/29 09:20:13;;;;;;;12.87;8.70;;;9.00;99.90;;;;;;5006765;28;20413;-77
2023/03/29 09:22:49;;;;;;;15.98;8.90;;;9.10;99.90;;;;;;5013694;28;20494;-77
2023/03/29 09:25:24;;;;;;;13.00;8.02;;;9.10;99.90;;;;;;5004278;28;20464;-77
2023/03/29 09:27:58;;;;;;;12.85;8.45;;;9.10;99.90;;;;;;5003647;28;20420;-77
2023/03/29 09:30:34;;;;;;;13.65;8.82;;;9.20;99.90;;;;;;5004398;28;20426;-77
2023/03/29 09:33:08;;;;;;;15.50;9.00;;;9.30;99.90;;;;;;5004061;28;20445;-78
2023/03/29 09:35:37;;;;;;;14.52;9.15;;;9.30;99.90;;;;;;5003943;28;20407;-77
2023/03/29 09:38:06;;;;;;;13.18;8.45;;;9.40;99.90;;;;;;5005675;28;20934;-78
2023/03/29 09:40:38;;;;;;;16.00;8.48;;;9.50;99.90;;;;;;5008233;28;20407;-77
2023/03/29 09:43:08;;;;;;;14.90;9.07;;;9.60;99.90;;;;;;5007019;28;20995;-77
2023/03/29 09:45:37;;;;;;;16.07;9.50;;;9.70;99.90;;;;;;5007077;28;21459;-77
2023/03/29 09:48:13;;;;;;;16.23;9.60;;;9.70;99.90;;;;;;5009081;28;20412;-77
2023/03/29 09:50:47;;;;;;;14.10;9.40;;;9.70;99.90;;;;;;5008195;28;20488;-78
2023/03/29 09:53:14;;;;;;;15.75;9.20;;;9.80;99.90;;;;;;5007808;28;20417;-78
2023/03/29 09:55:42;;;;;;;14.68;9.25;;;9.90;99.90;;;;;;5007771;28;20412;-78
2023/03/29 09:58:29;;;;;;;15.70;9.30;;;10.10;99.90;;;;;;5010384;28;20416;-78
2023/03/29 10:01:01;;;;;;;16.42;9.32;;;10.20;99.90;;;;;;5009147;28;20450;-78
2023/03/29 10:03:29;;;;;;;14.80;9.17;;;10.40;99.90;;;;;;5012656;28;20417;-78
2023/03/29 10:05:59;;;;;;;15.63;9.95;;;10.50;99.90;;;;;;5010556;28;20405;-78
2023/03/29 10:08:30;;;;;;;14.52;9.50;;;10.70;99.90;;;;;;5013041;28;20409;-78
2023/03/29 10:10:57;;;;;;;17.30;10.45;;;10.80;99.90;;;;;;5007219;28;20562;-78
2023/03/29 10:13:32;;;;;;;13.82;9.45;;;10.90;99.90;;;;;;5011979;28;20953;-78
2023/03/29 10:16:00;;;;;;;19.97;10.23;;;11.00;99.90;;;;;;5012182;28;20420;-78
2023/03/29 10:18:29;;;;;;;16.70;9.77;;;11.00;99.90;;;;;;5011028;28;20413;-78
2023/03/29 10:21:01;;;;;;;16.23;9.40;;;11.00;99.90;;;;;;4995361;28;20472;-78
2023/03/29 10:23:32;;;;;;;16.98;9.95;;;11.00;99.90;;;;;;5006506;28;20421;-78
2023/03/29 10:25:58;;;;;;;17.25;9.68;;;11.00;99.90;;;;;;5010791;28;20431;-78
2023/03/29 10:28:26;;;;;;;16.00;9.48;;;10.90;99.90;;;;;;5011197;28;20456;-78
2023/03/29 10:30:58;;;;;;;18.23;9.93;;;10.80;99.90;;;;;;5009753;28;20416;-78
2023/03/29 10:33:26;;;;;;;13.20;9.02;;;10.70;99.90;;;;;;5011901;28;20433;-78
2023/03/29 10:35:55;;;;;;;16.27;9.65;;;10.60;99.90;;;;;;5015740;28;20800;-78
2023/03/29 10:38:26;;;;;;;18.80;9.65;;;10.60;99.90;;;;;;5007480;28;20449;-77
2023/03/29 10:40:53;;;;;;;14.45;9.20;;;10.50;99.90;;;;;;5003830;28;20455;-77
2023/03/29 10:43:20;;;;;;;17.17;9.93;;;10.60;99.90;;;;;;5007337;28;20409;-77
2023/03/29 10:45:52;;;;;;;15.00;9.70;;;10.50;99.90;;;;;;5005773;28;21041;-76
2023/03/29 10:48:23;;;;;;;17.20;10.40;;;10.50;99.90;;;;;;5007047;28;20412;-76
2023/03/29 10:50:52;;;;;;;17.23;9.82;;;10.50;99.90;;;;;;5006148;28;20752;-76
2023/03/29 10:53:22;;;;;;;16.60;9.38;;;10.50;99.90;;;;;;5007098;28;20863;-76
2023/03/29 10:56:29;;;;;;;14.52;9.48;;;10.50;99.90;;;;;;5007099;28;20768;-76
2023/03/29 10:58:58;;;;;;;16.98;10.65;;;10.50;99.90;;;;;;5006100;28;20477;-76
2023/03/29 11:02:13;;;;;;;17.52;9.75;;;10.50;99.90;;;;;;5006078;28;20441;-76
2023/03/29 11:04:51;;;;;;;16.30;10.13;;;10.40;99.90;;;;;;4988971;28;20417;-76
2023/03/29 11:07:34;;;;;;;15.57;9.75;;;10.40;99.90;;;;;;4998013;28;20508;-76
2023/03/29 11:10:02;;;;;;;16.02;9.80;;;10.40;99.90;;;;;;5006588;28;20421;-76
2023/03/29 11:13:17;;;;;;;15.10;9.80;;;10.40;99.90;;;;;;5006204;28;20413;-76
2023/03/29 11:16:09;;;;;;;14.70;9.73;;;10.50;99.90;;;;;;5005531;28;20946;-76
2023/03/29 11:18:54;;;;;;;15.60;10.10;;;10.50;99.90;;;;;;4997550;28;20413;-76
2023/03/29 11:21:32;;;;;;;16.73;10.75;;;10.60;99.90;;;;;;5006034;28;20509;-76
2023/03/29 11:24:16;;;;;;;15.55;10.05;;;10.80;99.90;;;;;;5006915;28;20417;-76
2023/03/29 11:27:21;;;;;;;17.93;10.37;;;10.90;99.90;;;;;;5007321;28;20429;-76
2023/03/29 11:30:06;;;;;;;16.63;9.77;;;11.10;99.90;;;;;;5003796;28;20425;-76
2023/03/29 11:32:47;;;;;;;11.82;9.50;;;11.40;99.90;;;;;;5005144;28;20452;-77
2023/03/29 11:35:24;;;;;;;13.82;9.13;;;11.70;99.90;;;;;;5005916;28;20422;-77
2023/03/29 11:38:09;;;;;;;14.32;9.38;;;11.90;99.90;;;;;;5003396;28;20428;-77
2023/03/29 11:40:55;;;;;;;13.80;9.23;;;12.00;99.90;;;;;;5007194;28;20412;-76
2023/03/29 11:43:50;;;;;;;15.00;9.15;;;12.20;99.90;;;;;;5000048;28;20504;-76
2023/03/29 11:46:45;;;;;;;13.40;8.80;;;12.30;99.90;;;;;;5004891;28;20424;-76
2023/03/29 11:49:57;;;;;;;13.60;9.17;;;12.30;99.90;;;;;;5005684;28;20433;-76
2023/03/29 11:52:34;;;;;;;11.98;9.05;;;12.40;99.90;;;;;;5086394;28;20484;-77
2023/03/29 11:55:28;;;;;;;15.73;9.18;;;12.40;99.90;;;;;;5069993;28;20460;-77
2023/03/29 11:58:01;;;;;;;14.25;9.25;;;12.50;99.90;;;;;;5024138;28;20417;-77
2023/03/29 12:00:31;;;;;;;14.23;9.50;;;12.60;99.90;;;;;;5004781;28;20401;-77
2023/03/29 12:03:01;;;;;;;13.38;9.30;;;12.80;99.90;;;;;;5008889;28;20470;-77
2023/03/29 12:06:03;;;;;;;13.77;9.23;;;13.00;99.90;;;;;;4989404;28;20421;-77
2023/03/29 12:08:35;;;;;;;13.18;9.38;;;13.00;99.90;;;;;;5034399;28;20432;-77
2023/03/29 12:11:07;;;;;;;13.53;9.60;;;13.10;99.90;;;;;;5005036;28;20421;-76
2023/03/29 12:13:40;;;;;;;12.85;9.52;;;13.10;99.90;;;;;;5006405;28;20433;-77
2023/03/29 12:16:18;;;;;;;12.65;9.38;;;13.00;99.90;;;;;;5006563;28;20417;-77
2023/03/29 12:18:47;;;;;;;14.70;9.45;;;12.90;99.90;;;;;;5007004;28;20443;-77
2023/03/29 12:21:22;;;;;;;14.05;10.02;;;12.80;99.90;;;;;;5006091;28;20939;-77
2023/03/29 12:23:49;;;;;;;14.23;9.52;;;12.70;99.90;;;;;;5006553;28;20531;-77
2023/03/29 12:26:34;;;;;;;13.35;10.15;;;12.80;99.90;;;;;;5007576;28;20413;-77
2023/03/29 12:29:18;;;;;;;13.20;10.03;;;12.80;99.90;;;;;;5007447;28;20819;-76
2023/03/29 12:31:44;;;;;;;12.70;9.70;;;12.80;99.90;;;;;;4996397;28;20416;-75
2023/03/29 12:34:18;;;;;;;13.17;9.80;;;12.80;99.90;;;;;;5006465;28;20413;-77
2023/03/29 12:37:03;;;;;;;14.98;10.40;;;12.80;99.90;;;;;;5005193;28;20977;-77
2023/03/29 12:39:31;;;;;;;14.25;10.27;;;12.80;99.90;;;;;;5002549;28;20497;-76
2023/03/29 12:42:15;;;;;;;13.82;9.52;;;12.80;99.90;;;;;;5005872;28;20440;-76
2023/03/29 12:44:47;;;;;;;13.30;9.50;;;12.90;99.90;;;;;;5006081;28;20416;-76
2023/03/29 12:47:25;;;;;;;14.38;10.40;;;12.90;99.90;;;;;;5005311;28;20947;-76
2023/03/29 12:49:59;;;;;;;14.05;9.85;;;12.90;99.90;;;;;;4998185;28;20956;-76
2023/03/29 12:52:35;;;;;;;12.97;9.40;;;13.00;99.90;;;;;;5007883;28;20847;-76
2023/03/29 12:55:16;;;;;;;11.85;8.73;;;13.00;99.90;;;;;;5005429;28;20413;-76
2023/03/29 12:57:59;;;;;;;12.48;9.00;;;13.10;99.90;;;;;;5004027;28;20780;-77
2023/03/29 13:00:35;;;;;;;13.43;9.37;;;13.10;99.90;;;;;;5003794;28;20947;-76
2023/03/29 13:03:27;;;;;;;13.00;8.68;;;13.10;99.90;;;;;;5004149;28;20917;-76
2023/03/29 13:06:06;;;;;;;12.98;8.73;;;13.10;99.90;;;;;;5007509;28;20494;-77
2023/03/29 13:08:37;;;;;;;11.02;8.65;;;13.10;99.90;;;;;;5002058;28;20482;-77